Flight Track Log - Related Links

Times and Time Zones

All times are in EDT time to prevent confusion due to time zone crossing. See the UAL3836 flight status page for this flight to view local times or setup timezone preferences in your user account.

Time Position Orientation Groundspeed Altitude Reporting Facility
EDT Latitude Longitude Course Direction KTS MPH feet Rate Location/Type
Thu 08:00:00 PM 41.8557 -88.9911 261° West  Level FlightAware Approximate
Thu 08:01:00 PM 41.8398 -89.1280 261° West  Level FlightAware Approximate
Thu 08:02:00 PM 41.8243 -89.2650 262° West  Level FlightAware Approximate
Thu 08:03:00 PM 41.8091 -89.4019 262° West  Level FlightAware Approximate
Thu 08:04:00 PM 41.7930 -89.5387 260° West  Level FlightAware Approximate
Thu 08:05:00 PM 41.7755 -89.6751 260° West  Level FlightAware Approximate
Thu 08:06:00 PM 41.7579 -89.8115 260° West  Level FlightAware Approximate
Thu 08:07:00 PM 41.7402 -89.9478 260° West  Level FlightAware Approximate
Thu 08:08:00 PM 41.7223 -90.0840 260° West  Level FlightAware Approximate
Thu 08:09:00 PM 41.7042 -90.2202 260° West  Level FlightAware Approximate
Thu 08:10:00 PM 41.6860 -90.3562 260° West  Level FlightAware Approximate
Thu 08:11:00 PM 41.6675 -90.4922 260° West  Level FlightAware Approximate
Thu 08:12:00 PM 41.6490 -90.6281 260° West  Level FlightAware Approximate
Thu 08:13:00 PM 41.6303 -90.7639 260° West  Level FlightAware Approximate
Thu 08:14:00 PM 41.6114 -90.8997 260° West  Level FlightAware Approximate
Thu 08:15:00 PM 41.5924 -91.0354 259° West  Level FlightAware Approximate
Thu 08:16:00 PM 41.5732 -91.1710 259° West  Level FlightAware Approximate
Thu 08:17:00 PM 41.5539 -91.3065 259° West  Level FlightAware Approximate
Thu 08:18:00 PM 41.5346 -91.4419 259° West  Level FlightAware Approximate
Thu 08:19:00 PM 41.5167 -91.5776 270° West  Level FlightAware Approximate
Thu 08:20:00 PM 41.5107 -91.7147 261° West  Level FlightAware Approximate
Thu 08:21:00 PM 41.5000 -91.8514 270° West  Level FlightAware Approximate
Thu 08:22:00 PM 41.5001 -91.9892 270° West  Level FlightAware Approximate
Thu 08:23:00 PM 41.4986 -92.1270 266° West  Level FlightAware Approximate
Thu 08:24:00 PM 41.4917 -92.2645 266° West  Level FlightAware Approximate
Thu 08:25:00 PM 41.4846 -92.4019 266° West  Level FlightAware Approximate
Thu 08:26:00 PM 41.4772 -92.5394 266° West  Level FlightAware Approximate
Thu 08:27:00 PM 41.4698 -92.6768 266° West  Level FlightAware Approximate
Thu 08:28:00 PM 41.4667 -92.8144 270° West  Level FlightAware Approximate
Thu 08:29:00 PM 41.4667 -92.9521 270° West  Level FlightAware Approximate
Thu 08:30:00 PM 41.4605 -93.0895 266° West  Level FlightAware Approximate
Thu 08:31:00 PM 41.4524 -93.2268 266° West  Level FlightAware Approximate
Thu 08:32:00 PM 41.4426 -93.3639 264° West  Level FlightAware Approximate
Thu 08:33:00 PM 41.4333 -93.5010 270° West  Level FlightAware Approximate
Thu 08:34:00 PM 41.4372 -93.6346 346° North  Level FlightAware Approximate
Thu 08:35:00 PM 41.5333 -93.6500 North  Level FlightAware Approximate
Thu 08:36:00 PM 41.5340 -93.6631 North  Level Estimated
Thu 08:37:00 PM 41.5340 -93.6631 North  Level Estimated
Thu 08:38:00 PM 41.5340 -93.6631 North  Level Estimated
Thu 08:39:00 PM 41.5340 -93.6631 North  Level Estimated
Thu 08:40:00 PM 41.5340 -93.6631 North  Level Estimated
Thu 08:41:00 PM 41.5340 -93.6631 North  Level Estimated
Thu 08:42:00 PM 41.5340 -93.6631 North  Level Estimated
Thu 08:43:00 PM 41.5340 -93.6631 North  Level Estimated
Thu 08:44:00 PM 41.5340 -93.6631 North  Level Estimated
Thu 08:45:00 PM 41.5340 -93.6631 North  Level Estimated
Thu 08:46:00 PM 41.5340 -93.6631 North  Level Estimated
Thu 08:47:00 PM 41.5340 -93.6631 North  Level Estimated

Login

Don't have an account? Register now (free) for customized features, flight alerts, and more!